sensor_id;sensor_type;location;lat;lon;timestamp;P1;durP1;ratioP1;P2;durP2;ratioP2
50709;SDS011;37033;49.994;21.992;2023-05-29T00:01:35;7.00;;;4.70;;
50709;SDS011;37033;49.994;21.992;2023-05-29T00:04:07;6.50;;;4.30;;
50709;SDS011;37033;49.994;21.992;2023-05-29T00:06:38;6.40;;;4.00;;
50709;SDS011;37033;49.994;21.992;2023-05-29T00:09:08;6.50;;;4.70;;
50709;SDS011;37033;49.994;21.992;2023-05-29T00:11:39;10.10;;;4.70;;
50709;SDS011;37033;49.994;21.992;2023-05-29T00:14:10;6.50;;;4.40;;
50709;SDS011;37033;49.994;21.992;2023-05-29T00:16:41;9.10;;;4.70;;
50709;SDS011;37033;49.994;21.992;2023-05-29T00:19:12;8.10;;;4.80;;
50709;SDS011;37033;49.994;21.992;2023-05-29T00:21:44;7.30;;;4.80;;
50709;SDS011;37033;49.994;21.992;2023-05-29T00:24:15;5.40;;;4.60;;
50709;SDS011;37033;49.994;21.992;2023-05-29T00:26:47;8.00;;;4.00;;
50709;SDS011;37033;49.994;21.992;2023-05-29T00:29:18;5.50;;;4.40;;
50709;SDS011;37033;49.994;21.992;2023-05-29T00:31:49;7.70;;;4.10;;
50709;SDS011;37033;49.994;21.992;2023-05-29T00:34:21;11.00;;;4.70;;
50709;SDS011;37033;49.994;21.992;2023-05-29T00:36:53;8.90;;;4.50;;
50709;SDS011;37033;49.994;21.992;2023-05-29T00:39:23;8.30;;;4.10;;
50709;SDS011;37033;49.994;21.992;2023-05-29T00:41:54;4.30;;;3.80;;
50709;SDS011;37033;49.994;21.992;2023-05-29T00:44:24;7.10;;;4.40;;
50709;SDS011;37033;49.994;21.992;2023-05-29T00:46:55;5.50;;;3.90;;
50709;SDS011;37033;49.994;21.992;2023-05-29T00:49:26;6.60;;;3.80;;
50709;SDS011;37033;49.994;21.992;2023-05-29T00:51:57;6.00;;;4.20;;
50709;SDS011;37033;49.994;21.992;2023-05-29T00:54:28;5.60;;;4.20;;
50709;SDS011;37033;49.994;21.992;2023-05-29T00:57:00;6.10;;;3.90;;
50709;SDS011;37033;49.994;21.992;2023-05-29T00:59:33;5.20;;;4.20;;
50709;SDS011;37033;49.994;21.992;2023-05-29T01:02:04;5.80;;;4.40;;
50709;SDS011;37033;49.994;21.992;2023-05-29T01:04:35;6.30;;;3.50;;
50709;SDS011;37033;49.994;21.992;2023-05-29T01:07:06;8.40;;;4.40;;
50709;SDS011;37033;49.994;21.992;2023-05-29T01:09:37;9.10;;;3.80;;
50709;SDS011;37033;49.994;21.992;2023-05-29T01:12:12;5.70;;;3.80;;
50709;SDS011;37033;49.994;21.992;2023-05-29T01:14:55;6.90;;;4.10;;
50709;SDS011;37033;49.994;21.992;2023-05-29T01:17:42;5.10;;;3.70;;
50709;SDS011;37033;49.994;21.992;2023-05-29T01:20:24;7.10;;;3.90;;
50709;SDS011;37033;49.994;21.992;2023-05-29T01:23:08;5.90;;;3.40;;
50709;SDS011;37033;49.994;21.992;2023-05-29T01:28:53;6.50;;;3.50;;
50709;SDS011;37033;49.994;21.992;2023-05-29T01:31:29;6.90;;;4.10;;
50709;SDS011;37033;49.994;21.992;2023-05-29T01:34:01;6.70;;;3.50;;
50709;SDS011;37033;49.994;21.992;2023-05-29T01:36:32;7.10;;;3.80;;
50709;SDS011;37033;49.994;21.992;2023-05-29T01:39:03;4.50;;;3.70;;
50709;SDS011;37033;49.994;21.992;2023-05-29T01:41:34;7.70;;;3.40;;
50709;SDS011;37033;49.994;21.992;2023-05-29T01:44:06;7.20;;;3.50;;
50709;SDS011;37033;49.994;21.992;2023-05-29T01:46:38;7.50;;;3.70;;
50709;SDS011;37033;49.994;21.992;2023-05-29T01:49:09;5.90;;;3.80;;
50709;SDS011;37033;49.994;21.992;2023-05-29T01:51:41;6.50;;;3.80;;
50709;SDS011;37033;49.994;21.992;2023-05-29T01:54:11;6.00;;;3.80;;
50709;SDS011;37033;49.994;21.992;2023-05-29T01:56:42;5.70;;;3.20;;
50709;SDS011;37033;49.994;21.992;2023-05-29T01:59:14;5.50;;;3.60;;
50709;SDS011;37033;49.994;21.992;2023-05-29T02:01:45;5.40;;;3.60;;
50709;SDS011;37033;49.994;21.992;2023-05-29T02:04:17;5.60;;;3.20;;
50709;SDS011;37033;49.994;21.992;2023-05-29T02:06:48;9.00;;;3.60;;
50709;SDS011;37033;49.994;21.992;2023-05-29T02:09:20;6.40;;;3.90;;
50709;SDS011;37033;49.994;21.992;2023-05-29T02:11:51;5.40;;;3.40;;
50709;SDS011;37033;49.994;21.992;2023-05-29T02:14:22;9.80;;;4.00;;
50709;SDS011;37033;49.994;21.992;2023-05-29T02:16:53;4.70;;;3.10;;
50709;SDS011;37033;49.994;21.992;2023-05-29T02:19:24;6.10;;;3.40;;
50709;SDS011;37033;49.994;21.992;2023-05-29T02:21:55;7.00;;;3.50;;
50709;SDS011;37033;49.994;21.992;2023-05-29T02:24:26;10.40;;;3.70;;
50709;SDS011;37033;49.994;21.992;2023-05-29T02:26:56;5.00;;;3.40;;
50709;SDS011;37033;49.994;21.992;2023-05-29T02:29:27;6.70;;;3.70;;
50709;SDS011;37033;49.994;21.992;2023-05-29T02:31:58;5.10;;;4.00;;
50709;SDS011;37033;49.994;21.992;2023-05-29T02:34:28;8.10;;;3.30;;
50709;SDS011;37033;49.994;21.992;2023-05-29T02:36:59;7.20;;;3.50;;
50709;SDS011;37033;49.994;21.992;2023-05-29T02:39:30;5.90;;;3.70;;
50709;SDS011;37033;49.994;21.992;2023-05-29T02:42:01;8.10;;;3.60;;
50709;SDS011;37033;49.994;21.992;2023-05-29T02:44:31;4.70;;;3.30;;
50709;SDS011;37033;49.994;21.992;2023-05-29T02:47:02;6.70;;;4.20;;
50709;SDS011;37033;49.994;21.992;2023-05-29T02:49:33;7.00;;;4.10;;
50709;SDS011;37033;49.994;21.992;2023-05-29T02:52:04;6.80;;;3.70;;
50709;SDS011;37033;49.994;21.992;2023-05-29T02:54:35;7.00;;;3.90;;
50709;SDS011;37033;49.994;21.992;2023-05-29T02:57:06;4.90;;;3.80;;
50709;SDS011;37033;49.994;21.992;2023-05-29T02:59:37;6.60;;;3.50;;
50709;SDS011;37033;49.994;21.992;2023-05-29T03:02:08;4.20;;;3.20;;
50709;SDS011;37033;49.994;21.992;2023-05-29T03:04:38;6.00;;;3.30;;
50709;SDS011;37033;49.994;21.992;2023-05-29T03:07:09;7.10;;;3.50;;
50709;SDS011;37033;49.994;21.992;2023-05-29T03:09:40;144.20;;;10.60;;
50709;SDS011;37033;49.994;21.992;2023-05-29T03:12:10;5.10;;;3.70;;
50709;SDS011;37033;49.994;21.992;2023-05-29T03:14:41;4.70;;;3.80;;
50709;SDS011;37033;49.994;21.992;2023-05-29T03:17:12;5.90;;;4.20;;
50709;SDS011;37033;49.994;21.992;2023-05-29T03:19:43;5.70;;;3.70;;
50709;SDS011;37033;49.994;21.992;2023-05-29T03:22:13;6.00;;;3.70;;
50709;SDS011;37033;49.994;21.992;2023-05-29T03:24:44;5.80;;;3.80;;
50709;SDS011;37033;49.994;21.992;2023-05-29T03:27:15;5.10;;;3.60;;
50709;SDS011;37033;49.994;21.992;2023-05-29T03:29:45;5.00;;;3.60;;
50709;SDS011;37033;49.994;21.992;2023-05-29T03:32:16;6.00;;;4.00;;
50709;SDS011;37033;49.994;21.992;2023-05-29T03:34:46;9.20;;;3.80;;
50709;SDS011;37033;49.994;21.992;2023-05-29T03:37:17;7.60;;;3.70;;
50709;SDS011;37033;49.994;21.992;2023-05-29T03:39:48;6.90;;;3.80;;
50709;SDS011;37033;49.994;21.992;2023-05-29T03:42:19;8.70;;;4.20;;
50709;SDS011;37033;49.994;21.992;2023-05-29T03:44:50;7.70;;;3.60;;
50709;SDS011;37033;49.994;21.992;2023-05-29T03:47:20;4.60;;;3.80;;
50709;SDS011;37033;49.994;21.992;2023-05-29T03:49:51;6.20;;;5.50;;
50709;SDS011;37033;49.994;21.992;2023-05-29T03:52:22;16.40;;;7.90;;
50709;SDS011;37033;49.994;21.992;2023-05-29T03:54:53;10.30;;;4.70;;
50709;SDS011;37033;49.994;21.992;2023-05-29T03:57:23;5.90;;;4.20;;
50709;SDS011;37033;49.994;21.992;2023-05-29T03:59:54;8.20;;;4.50;;
50709;SDS011;37033;49.994;21.992;2023-05-29T04:02:25;10.80;;;5.00;;
50709;SDS011;37033;49.994;21.992;2023-05-29T04:04:55;5.60;;;3.80;;
50709;SDS011;37033;49.994;21.992;2023-05-29T04:07:26;6.40;;;4.30;;
50709;SDS011;37033;49.994;21.992;2023-05-29T04:09:57;6.90;;;4.20;;
50709;SDS011;37033;49.994;21.992;2023-05-29T04:12:27;6.30;;;4.70;;
50709;SDS011;37033;49.994;21.992;2023-05-29T04:14:59;6.00;;;3.90;;
50709;SDS011;37033;49.994;21.992;2023-05-29T04:17:29;7.10;;;4.00;;
50709;SDS011;37033;49.994;21.992;2023-05-29T04:20:00;5.60;;;4.70;;
50709;SDS011;37033;49.994;21.992;2023-05-29T04:22:36;5.80;;;4.20;;
50709;SDS011;37033;49.994;21.992;2023-05-29T04:25:07;6.40;;;3.80;;
50709;SDS011;37033;49.994;21.992;2023-05-29T04:27:38;5.90;;;4.10;;
50709;SDS011;37033;49.994;21.992;2023-05-29T04:30:09;5.60;;;4.10;;
50709;SDS011;37033;49.994;21.992;2023-05-29T04:32:40;5.50;;;3.70;;
50709;SDS011;37033;49.994;21.992;2023-05-29T04:35:11;4.80;;;3.60;;
50709;SDS011;37033;49.994;21.992;2023-05-29T04:37:42;7.90;;;4.10;;
50709;SDS011;37033;49.994;21.992;2023-05-29T04:40:13;4.30;;;3.50;;
50709;SDS011;37033;49.994;21.992;2023-05-29T04:42:45;8.20;;;4.90;;
50709;SDS011;37033;49.994;21.992;2023-05-29T04:45:15;6.30;;;4.10;;
50709;SDS011;37033;49.994;21.992;2023-05-29T04:47:48;4.90;;;4.40;;
50709;SDS011;37033;49.994;21.992;2023-05-29T04:50:20;7.90;;;4.70;;
50709;SDS011;37033;49.994;21.992;2023-05-29T04:52:51;7.00;;;4.50;;
50709;SDS011;37033;49.994;21.992;2023-05-29T04:55:22;6.80;;;4.20;;
50709;SDS011;37033;49.994;21.992;2023-05-29T04:57:53;6.30;;;4.50;;
50709;SDS011;37033;49.994;21.992;2023-05-29T05:00:24;8.50;;;4.30;;
50709;SDS011;37033;49.994;21.992;2023-05-29T05:02:54;6.50;;;4.10;;
50709;SDS011;37033;49.994;21.992;2023-05-29T05:05:25;8.70;;;4.10;;
50709;SDS011;37033;49.994;21.992;2023-05-29T05:07:56;7.10;;;5.00;;
50709;SDS011;37033;49.994;21.992;2023-05-29T05:10:27;10.30;;;5.10;;
50709;SDS011;37033;49.994;21.992;2023-05-29T05:12:57;5.60;;;4.10;;
50709;SDS011;37033;49.994;21.992;2023-05-29T05:15:30;8.00;;;4.20;;
50709;SDS011;37033;49.994;21.992;2023-05-29T05:18:00;8.30;;;4.90;;
50709;SDS011;37033;49.994;21.992;2023-05-29T05:20:31;8.00;;;5.00;;
50709;SDS011;37033;49.994;21.992;2023-05-29T05:23:02;7.40;;;4.30;;
50709;SDS011;37033;49.994;21.992;2023-05-29T05:25:33;7.30;;;5.10;;
50709;SDS011;37033;49.994;21.992;2023-05-29T05:28:03;6.30;;;5.00;;
50709;SDS011;37033;49.994;21.992;2023-05-29T05:30:34;7.50;;;4.80;;
50709;SDS011;37033;49.994;21.992;2023-05-29T05:33:05;6.80;;;4.90;;
50709;SDS011;37033;49.994;21.992;2023-05-29T05:35:35;8.20;;;4.80;;
50709;SDS011;37033;49.994;21.992;2023-05-29T05:38:06;6.40;;;4.90;;
50709;SDS011;37033;49.994;21.992;2023-05-29T05:40:37;7.80;;;3.90;;
50709;SDS011;37033;49.994;21.992;2023-05-29T05:43:07;8.50;;;4.30;;
50709;SDS011;37033;49.994;21.992;2023-05-29T05:45:38;8.10;;;4.40;;
50709;SDS011;37033;49.994;21.992;2023-05-29T05:48:09;8.10;;;5.10;;
50709;SDS011;37033;49.994;21.992;2023-05-29T05:50:40;4.80;;;3.70;;
50709;SDS011;37033;49.994;21.992;2023-05-29T05:53:11;14.70;;;5.50;;
50709;SDS011;37033;49.994;21.992;2023-05-29T05:55:42;7.70;;;4.40;;
50709;SDS011;37033;49.994;21.992;2023-05-29T05:58:13;5.40;;;3.80;;
50709;SDS011;37033;49.994;21.992;2023-05-29T06:00:43;5.50;;;4.40;;
50709;SDS011;37033;49.994;21.992;2023-05-29T06:03:14;6.10;;;3.70;;
50709;SDS011;37033;49.994;21.992;2023-05-29T06:05:44;8.10;;;3.70;;
50709;SDS011;37033;49.994;21.992;2023-05-29T06:08:15;13.60;;;5.00;;
50709;SDS011;37033;49.994;21.992;2023-05-29T06:10:46;7.70;;;4.10;;
50709;SDS011;37033;49.994;21.992;2023-05-29T06:13:16;8.10;;;4.30;;
50709;SDS011;37033;49.994;21.992;2023-05-29T06:15:47;5.00;;;3.60;;
50709;SDS011;37033;49.994;21.992;2023-05-29T06:18:18;11.40;;;3.70;;
50709;SDS011;37033;49.994;21.992;2023-05-29T06:20:48;6.10;;;4.00;;
50709;SDS011;37033;49.994;21.992;2023-05-29T06:23:19;9.60;;;4.60;;
50709;SDS011;37033;49.994;21.992;2023-05-29T06:25:49;6.30;;;3.50;;
50709;SDS011;37033;49.994;21.992;2023-05-29T06:28:20;6.90;;;3.50;;
50709;SDS011;37033;49.994;21.992;2023-05-29T06:30:51;6.40;;;3.40;;
50709;SDS011;37033;49.994;21.992;2023-05-29T06:33:21;8.10;;;3.50;;
50709;SDS011;37033;49.994;21.992;2023-05-29T06:35:52;11.10;;;3.90;;
50709;SDS011;37033;49.994;21.992;2023-05-29T06:38:23;6.70;;;3.90;;
50709;SDS011;37033;49.994;21.992;2023-05-29T06:40:53;11.00;;;4.00;;
50709;SDS011;37033;49.994;21.992;2023-05-29T06:43:24;4.10;;;3.00;;
50709;SDS011;37033;49.994;21.992;2023-05-29T06:45:56;5.80;;;4.00;;
50709;SDS011;37033;49.994;21.992;2023-05-29T06:48:26;9.30;;;3.30;;
50709;SDS011;37033;49.994;21.992;2023-05-29T06:50:57;8.00;;;3.70;;
50709;SDS011;37033;49.994;21.992;2023-05-29T06:53:27;6.00;;;3.60;;
50709;SDS011;37033;49.994;21.992;2023-05-29T06:55:58;5.10;;;3.60;;
50709;SDS011;37033;49.994;21.992;2023-05-29T06:58:29;4.40;;;3.20;;
50709;SDS011;37033;49.994;21.992;2023-05-29T07:01:00;5.70;;;3.60;;
50709;SDS011;37033;49.994;21.992;2023-05-29T07:03:31;11.10;;;3.30;;
50709;SDS011;37033;49.994;21.992;2023-05-29T07:06:03;35.50;;;5.10;;
50709;SDS011;37033;49.994;21.992;2023-05-29T07:08:35;3.40;;;2.90;;
50709;SDS011;37033;49.994;21.992;2023-05-29T07:11:05;7.30;;;2.90;;
50709;SDS011;37033;49.994;21.992;2023-05-29T07:13:37;5.60;;;2.70;;
50709;SDS011;37033;49.994;21.992;2023-05-29T07:16:07;4.50;;;3.10;;
50709;SDS011;37033;49.994;21.992;2023-05-29T07:18:38;5.40;;;2.80;;
50709;SDS011;37033;49.994;21.992;2023-05-29T07:21:09;4.10;;;3.40;;
50709;SDS011;37033;49.994;21.992;2023-05-29T07:23:39;7.50;;;3.40;;
50709;SDS011;37033;49.994;21.992;2023-05-29T07:26:10;7.80;;;3.20;;
50709;SDS011;37033;49.994;21.992;2023-05-29T07:28:41;6.90;;;3.70;;
50709;SDS011;37033;49.994;21.992;2023-05-29T07:31:11;3.90;;;2.70;;
50709;SDS011;37033;49.994;21.992;2023-05-29T07:33:42;8.80;;;3.00;;
50709;SDS011;37033;49.994;21.992;2023-05-29T07:36:14;4.40;;;3.50;;
50709;SDS011;37033;49.994;21.992;2023-05-29T07:38:45;4.40;;;2.80;;
50709;SDS011;37033;49.994;21.992;2023-05-29T07:41:16;8.00;;;2.80;;
50709;SDS011;37033;49.994;21.992;2023-05-29T07:43:47;8.50;;;2.40;;
50709;SDS011;37033;49.994;21.992;2023-05-29T07:46:19;2.50;;;2.20;;
50709;SDS011;37033;49.994;21.992;2023-05-29T07:48:50;2.90;;;2.60;;
50709;SDS011;37033;49.994;21.992;2023-05-29T07:51:20;4.10;;;2.30;;
50709;SDS011;37033;49.994;21.992;2023-05-29T07:53:52;2.80;;;2.20;;
50709;SDS011;37033;49.994;21.992;2023-05-29T07:56:22;3.90;;;2.40;;
50709;SDS011;37033;49.994;21.992;2023-05-29T07:58:53;7.40;;;3.10;;
50709;SDS011;37033;49.994;21.992;2023-05-29T08:01:24;6.40;;;2.30;;
50709;SDS011;37033;49.994;21.992;2023-05-29T08:03:54;6.50;;;2.70;;
50709;SDS011;37033;49.994;21.992;2023-05-29T08:06:25;6.50;;;2.80;;
50709;SDS011;37033;49.994;21.992;2023-05-29T08:08:56;6.60;;;2.80;;
50709;SDS011;37033;49.994;21.992;2023-05-29T08:11:26;11.70;;;2.80;;
50709;SDS011;37033;49.994;21.992;2023-05-29T08:13:57;4.20;;;2.50;;
50709;SDS011;37033;49.994;21.992;2023-05-29T08:16:28;3.50;;;2.10;;
50709;SDS011;37033;49.994;21.992;2023-05-29T08:18:59;4.00;;;2.20;;
50709;SDS011;37033;49.994;21.992;2023-05-29T08:21:29;5.50;;;2.70;;
50709;SDS011;37033;49.994;21.992;2023-05-29T08:24:02;5.20;;;2.40;;
50709;SDS011;37033;49.994;21.992;2023-05-29T08:26:33;5.10;;;2.20;;
50709;SDS011;37033;49.994;21.992;2023-05-29T08:29:04;15.50;;;3.50;;
50709;SDS011;37033;49.994;21.992;2023-05-29T08:31:34;7.10;;;2.80;;
50709;SDS011;37033;49.994;21.992;2023-05-29T08:34:05;5.90;;;2.20;;
50709;SDS011;37033;49.994;21.992;2023-05-29T08:36:37;5.10;;;2.20;;
50709;SDS011;37033;49.994;21.992;2023-05-29T08:39:08;9.80;;;2.50;;
50709;SDS011;37033;49.994;21.992;2023-05-29T08:41:41;3.40;;;2.00;;
50709;SDS011;37033;49.994;21.992;2023-05-29T08:44:19;7.90;;;2.40;;
50709;SDS011;37033;49.994;21.992;2023-05-29T08:46:53;8.50;;;2.60;;
50709;SDS011;37033;49.994;21.992;2023-05-29T08:49:25;7.00;;;2.30;;
50709;SDS011;37033;49.994;21.992;2023-05-29T08:52:00;12.10;;;2.50;;
50709;SDS011;37033;49.994;21.992;2023-05-29T08:54:38;7.10;;;2.50;;
50709;SDS011;37033;49.994;21.992;2023-05-29T08:57:10;9.00;;;2.40;;
50709;SDS011;37033;49.994;21.992;2023-05-29T08:59:42;6.20;;;2.70;;
50709;SDS011;37033;49.994;21.992;2023-05-29T09:02:13;4.80;;;2.00;;
50709;SDS011;37033;49.994;21.992;2023-05-29T09:04:44;7.30;;;2.10;;
50709;SDS011;37033;49.994;21.992;2023-05-29T09:07:20;8.00;;;2.40;;
50709;SDS011;37033;49.994;21.992;2023-05-29T09:09:52;5.90;;;2.70;;
50709;SDS011;37033;49.994;21.992;2023-05-29T09:12:23;7.90;;;2.50;;
50709;SDS011;37033;49.994;21.992;2023-05-29T09:14:54;6.20;;;2.70;;
50709;SDS011;37033;49.994;21.992;2023-05-29T09:17:24;6.60;;;2.00;;
50709;SDS011;37033;49.994;21.992;2023-05-29T09:20:01;11.90;;;2.90;;
50709;SDS011;37033;49.994;21.992;2023-05-29T09:22:33;5.80;;;2.00;;
50709;SDS011;37033;49.994;21.992;2023-05-29T09:25:04;5.30;;;2.30;;
50709;SDS011;37033;49.994;21.992;2023-05-29T09:27:39;4.50;;;1.90;;
50709;SDS011;37033;49.994;21.992;2023-05-29T09:30:11;6.00;;;2.40;;
50709;SDS011;37033;49.994;21.992;2023-05-29T09:33:00;7.20;;;2.20;;
50709;SDS011;37033;49.994;21.992;2023-05-29T09:35:35;7.90;;;2.20;;
50709;SDS011;37033;49.994;21.992;2023-05-29T09:38:07;5.30;;;2.10;;
50709;SDS011;37033;49.994;21.992;2023-05-29T09:40:39;9.10;;;2.20;;
50709;SDS011;37033;49.994;21.992;2023-05-29T09:43:13;6.40;;;2.40;;
50709;SDS011;37033;49.994;21.992;2023-05-29T09:45:46;4.40;;;2.20;;
50709;SDS011;37033;49.994;21.992;2023-05-29T09:48:18;2.80;;;2.00;;
50709;SDS011;37033;49.994;21.992;2023-05-29T09:50:51;5.30;;;2.70;;
50709;SDS011;37033;49.994;21.992;2023-05-29T09:53:25;6.40;;;2.70;;
50709;SDS011;37033;49.994;21.992;2023-05-29T09:55:57;5.90;;;2.30;;
50709;SDS011;37033;49.994;21.992;2023-05-29T09:58:28;4.10;;;2.20;;
50709;SDS011;37033;49.994;21.992;2023-05-29T10:01:01;3.50;;;2.60;;
50709;SDS011;37033;49.994;21.992;2023-05-29T10:03:32;4.50;;;2.50;;
50709;SDS011;37033;49.994;21.992;2023-05-29T10:06:03;4.40;;;2.50;;
50709;SDS011;37033;49.994;21.992;2023-05-29T10:08:37;8.70;;;2.80;;
50709;SDS011;37033;49.994;21.992;2023-05-29T10:11:09;17.90;;;2.80;;
50709;SDS011;37033;49.994;21.992;2023-05-29T10:13:43;4.50;;;2.70;;
50709;SDS011;37033;49.994;21.992;2023-05-29T10:16:18;7.20;;;2.10;;
50709;SDS011;37033;49.994;21.992;2023-05-29T10:18:53;2.80;;;2.20;;
50709;SDS011;37033;49.994;21.992;2023-05-29T10:21:24;6.00;;;3.00;;
50709;SDS011;37033;49.994;21.992;2023-05-29T10:23:56;3.30;;;2.40;;
50709;SDS011;37033;49.994;21.992;2023-05-29T10:26:30;4.80;;;2.30;;
50709;SDS011;37033;49.994;21.992;2023-05-29T10:29:05;6.00;;;2.90;;
50709;SDS011;37033;49.994;21.992;2023-05-29T10:31:43;4.30;;;2.90;;
50709;SDS011;37033;49.994;21.992;2023-05-29T10:34:23;3.90;;;2.90;;
50709;SDS011;37033;49.994;21.992;2023-05-29T10:37:02;6.00;;;3.40;;
50709;SDS011;37033;49.994;21.992;2023-05-29T10:39:37;4.40;;;3.00;;
50709;SDS011;37033;49.994;21.992;2023-05-29T10:42:21;5.30;;;2.50;;
50709;SDS011;37033;49.994;21.992;2023-05-29T10:45:11;3.80;;;2.50;;
50709;SDS011;37033;49.994;21.992;2023-05-29T10:51:27;10.40;;;3.20;;
50709;SDS011;37033;49.994;21.992;2023-05-29T10:53:59;7.40;;;3.00;;
50709;SDS011;37033;49.994;21.992;2023-05-29T10:56:29;6.40;;;3.50;;
50709;SDS011;37033;49.994;21.992;2023-05-29T10:59:00;8.60;;;3.20;;
50709;SDS011;37033;49.994;21.992;2023-05-29T11:01:31;7.50;;;2.70;;
50709;SDS011;37033;49.994;21.992;2023-05-29T11:07:01;11.90;;;3.30;;
50709;SDS011;37033;49.994;21.992;2023-05-29T11:09:35;6.00;;;2.50;;
50709;SDS011;37033;49.994;21.992;2023-05-29T11:12:14;5.20;;;2.80;;
50709;SDS011;37033;49.994;21.992;2023-05-29T11:14:56;4.90;;;3.10;;
50709;SDS011;37033;49.994;21.992;2023-05-29T11:17:31;7.90;;;2.60;;
50709;SDS011;37033;49.994;21.992;2023-05-29T11:20:16;5.10;;;2.80;;
50709;SDS011;37033;49.994;21.992;2023-05-29T11:23:00;6.50;;;2.60;;
50709;SDS011;37033;49.994;21.992;2023-05-29T11:25:35;8.40;;;3.40;;
50709;SDS011;37033;49.994;21.992;2023-05-29T11:28:07;5.00;;;2.90;;
50709;SDS011;37033;49.994;21.992;2023-05-29T11:30:46;4.40;;;3.10;;
50709;SDS011;37033;49.994;21.992;2023-05-29T11:33:26;3.50;;;3.10;;
50709;SDS011;37033;49.994;21.992;2023-05-29T11:35:58;9.50;;;3.00;;
50709;SDS011;37033;49.994;21.992;2023-05-29T11:38:29;9.50;;;3.00;;
50709;SDS011;37033;49.994;21.992;2023-05-29T11:41:02;5.80;;;3.20;;
50709;SDS011;37033;49.994;21.992;2023-05-29T11:43:32;5.50;;;3.00;;
50709;SDS011;37033;49.994;21.992;2023-05-29T11:46:04;5.50;;;2.90;;
50709;SDS011;37033;49.994;21.992;2023-05-29T11:48:46;4.30;;;3.40;;
50709;SDS011;37033;49.994;21.992;2023-05-29T11:51:16;6.60;;;3.70;;
50709;SDS011;37033;49.994;21.992;2023-05-29T11:53:48;4.60;;;4.10;;
50709;SDS011;37033;49.994;21.992;2023-05-29T11:56:25;5.00;;;3.20;;
50709;SDS011;37033;49.994;21.992;2023-05-29T11:58:58;7.20;;;4.00;;
50709;SDS011;37033;49.994;21.992;2023-05-29T12:01:33;5.80;;;3.20;;
50709;SDS011;37033;49.994;21.992;2023-05-29T12:04:07;6.50;;;3.50;;
50709;SDS011;37033;49.994;21.992;2023-05-29T12:06:44;4.30;;;3.30;;
50709;SDS011;37033;49.994;21.992;2023-05-29T12:09:27;6.90;;;3.50;;
50709;SDS011;37033;49.994;21.992;2023-05-29T12:12:02;3.20;;;2.50;;
50709;SDS011;37033;49.994;21.992;2023-05-29T12:14:34;3.80;;;2.90;;
50709;SDS011;37033;49.994;21.992;2023-05-29T12:17:04;5.20;;;3.50;;
50709;SDS011;37033;49.994;21.992;2023-05-29T12:19:36;5.20;;;3.20;;
50709;SDS011;37033;49.994;21.992;2023-05-29T12:22:07;5.50;;;3.20;;
50709;SDS011;37033;49.994;21.992;2023-05-29T12:24:37;5.60;;;2.90;;
50709;SDS011;37033;49.994;21.992;2023-05-29T12:27:08;4.60;;;3.80;;
50709;SDS011;37033;49.994;21.992;2023-05-29T12:29:39;4.40;;;3.00;;
50709;SDS011;37033;49.994;21.992;2023-05-29T12:32:10;6.70;;;3.00;;
50709;SDS011;37033;49.994;21.992;2023-05-29T12:34:41;4.80;;;3.00;;
50709;SDS011;37033;49.994;21.992;2023-05-29T12:37:11;3.60;;;3.20;;
50709;SDS011;37033;49.994;21.992;2023-05-29T12:39:42;3.90;;;2.80;;
50709;SDS011;37033;49.994;21.992;2023-05-29T12:42:13;9.10;;;2.90;;
50709;SDS011;37033;49.994;21.992;2023-05-29T12:44:45;6.00;;;2.70;;
50709;SDS011;37033;49.994;21.992;2023-05-29T12:47:16;3.20;;;2.80;;
50709;SDS011;37033;49.994;21.992;2023-05-29T12:49:53;4.20;;;2.80;;
50709;SDS011;37033;49.994;21.992;2023-05-29T12:52:24;5.20;;;3.00;;
50709;SDS011;37033;49.994;21.992;2023-05-29T12:54:55;4.80;;;3.10;;
50709;SDS011;37033;49.994;21.992;2023-05-29T12:57:25;5.80;;;3.20;;
50709;SDS011;37033;49.994;21.992;2023-05-29T12:59:56;4.30;;;2.60;;
50709;SDS011;37033;49.994;21.992;2023-05-29T13:02:27;11.60;;;2.80;;
50709;SDS011;37033;49.994;21.992;2023-05-29T13:04:57;5.40;;;3.10;;
50709;SDS011;37033;49.994;21.992;2023-05-29T13:07:28;5.80;;;3.40;;
50709;SDS011;37033;49.994;21.992;2023-05-29T13:09:59;8.00;;;2.80;;
50709;SDS011;37033;49.994;21.992;2023-05-29T13:12:29;5.50;;;3.30;;
50709;SDS011;37033;49.994;21.992;2023-05-29T13:15:00;3.50;;;2.70;;
50709;SDS011;37033;49.994;21.992;2023-05-29T13:17:31;5.70;;;2.80;;
50709;SDS011;37033;49.994;21.992;2023-05-29T13:20:02;5.40;;;2.80;;
50709;SDS011;37033;49.994;21.992;2023-05-29T13:22:36;6.00;;;3.00;;
50709;SDS011;37033;49.994;21.992;2023-05-29T13:25:07;5.40;;;3.10;;
50709;SDS011;37033;49.994;21.992;2023-05-29T13:27:41;5.50;;;3.40;;
50709;SDS011;37033;49.994;21.992;2023-05-29T13:30:14;4.30;;;2.60;;
50709;SDS011;37033;49.994;21.992;2023-05-29T13:32:45;5.90;;;3.10;;
50709;SDS011;37033;49.994;21.992;2023-05-29T13:35:16;7.50;;;2.90;;
50709;SDS011;37033;49.994;21.992;2023-05-29T13:37:46;4.00;;;3.10;;
50709;SDS011;37033;49.994;21.992;2023-05-29T13:40:17;3.30;;;2.60;;
50709;SDS011;37033;49.994;21.992;2023-05-29T13:42:48;6.20;;;3.20;;
50709;SDS011;37033;49.994;21.992;2023-05-29T13:45:19;5.90;;;2.80;;
50709;SDS011;37033;49.994;21.992;2023-05-29T13:47:49;3.80;;;2.60;;
50709;SDS011;37033;49.994;21.992;2023-05-29T13:50:20;5.60;;;2.90;;
50709;SDS011;37033;49.994;21.992;2023-05-29T13:52:52;7.70;;;3.00;;
50709;SDS011;37033;49.994;21.992;2023-05-29T13:55:22;5.80;;;3.10;;
50709;SDS011;37033;49.994;21.992;2023-05-29T13:57:53;4.20;;;3.10;;
50709;SDS011;37033;49.994;21.992;2023-05-29T14:00:25;3.70;;;2.70;;
50709;SDS011;37033;49.994;21.992;2023-05-29T14:02:56;3.90;;;3.10;;
50709;SDS011;37033;49.994;21.992;2023-05-29T14:05:27;5.70;;;2.80;;
50709;SDS011;37033;49.994;21.992;2023-05-29T14:07:57;7.10;;;2.70;;
50709;SDS011;37033;49.994;21.992;2023-05-29T14:10:28;3.70;;;2.90;;
50709;SDS011;37033;49.994;21.992;2023-05-29T14:12:58;8.90;;;3.20;;
50709;SDS011;37033;49.994;21.992;2023-05-29T14:15:29;7.60;;;3.10;;
50709;SDS011;37033;49.994;21.992;2023-05-29T14:18:00;4.10;;;2.50;;
50709;SDS011;37033;49.994;21.992;2023-05-29T14:20:31;3.70;;;2.90;;
50709;SDS011;37033;49.994;21.992;2023-05-29T14:23:01;6.80;;;2.50;;
50709;SDS011;37033;49.994;21.992;2023-05-29T14:25:32;5.50;;;3.00;;
50709;SDS011;37033;49.994;21.992;2023-05-29T14:28:02;5.00;;;3.10;;
50709;SDS011;37033;49.994;21.992;2023-05-29T14:30:34;3.50;;;3.00;;
50709;SDS011;37033;49.994;21.992;2023-05-29T14:33:04;5.70;;;3.10;;
50709;SDS011;37033;49.994;21.992;2023-05-29T14:35:35;4.80;;;3.30;;
50709;SDS011;37033;49.994;21.992;2023-05-29T14:38:06;3.50;;;2.90;;
50709;SDS011;37033;49.994;21.992;2023-05-29T14:40:36;5.30;;;3.10;;
50709;SDS011;37033;49.994;21.992;2023-05-29T14:43:07;6.80;;;2.90;;
50709;SDS011;37033;49.994;21.992;2023-05-29T14:45:37;4.90;;;2.80;;
50709;SDS011;37033;49.994;21.992;2023-05-29T14:48:08;7.50;;;2.90;;
50709;SDS011;37033;49.994;21.992;2023-05-29T14:50:39;4.40;;;3.40;;
50709;SDS011;37033;49.994;21.992;2023-05-29T14:53:10;3.80;;;3.30;;
50709;SDS011;37033;49.994;21.992;2023-05-29T14:55:40;8.70;;;4.30;;
50709;SDS011;37033;49.994;21.992;2023-05-29T14:58:11;8.60;;;3.70;;
50709;SDS011;37033;49.994;21.992;2023-05-29T15:00:42;6.60;;;3.50;;
50709;SDS011;37033;49.994;21.992;2023-05-29T15:03:13;4.30;;;3.80;;
50709;SDS011;37033;49.994;21.992;2023-05-29T15:05:43;5.50;;;3.30;;
50709;SDS011;37033;49.994;21.992;2023-05-29T15:08:14;5.60;;;3.80;;
50709;SDS011;37033;49.994;21.992;2023-05-29T15:10:45;5.20;;;3.30;;